sensor_id;sensor_type;location;lat;lon;timestamp;temperature;humidity
66057;DHT22;52842;52.666;5.202;2022-11-06T00:00:06;17.90;81.10
66057;DHT22;52842;52.666;5.202;2022-11-06T00:02:33;17.90;81.10
66057;DHT22;52842;52.666;5.202;2022-11-06T00:05:00;17.90;81.10
66057;DHT22;52842;52.666;5.202;2022-11-06T00:07:43;17.90;81.10
66057;DHT22;52842;52.666;5.202;2022-11-06T00:10:10;17.90;81.90
66057;DHT22;52842;52.666;5.202;2022-11-06T00:12:36;17.90;81.10
66057;DHT22;52842;52.666;5.202;2022-11-06T00:15:05;17.90;81.10
66057;DHT22;52842;52.666;5.202;2022-11-06T00:17:32;17.80;81.00
66057;DHT22;52842;52.666;5.202;2022-11-06T00:19:58;17.80;81.00
66057;DHT22;52842;52.666;5.202;2022-11-06T00:22:25;17.90;81.10
66057;DHT22;52842;52.666;5.202;2022-11-06T00:24:52;17.80;81.00
66057;DHT22;52842;52.666;5.202;2022-11-06T00:27:18;17.80;81.00
66057;DHT22;52842;52.666;5.202;2022-11-06T00:29:45;17.80;81.00
66057;DHT22;52842;52.666;5.202;2022-11-06T00:32:13;17.80;81.00
66057;DHT22;52842;52.666;5.202;2022-11-06T00:34:40;17.80;81.00
66057;DHT22;52842;52.666;5.202;2022-11-06T00:37:06;17.80;81.00
66057;DHT22;52842;52.666;5.202;2022-11-06T00:39:33;17.80;81.00
66057;DHT22;52842;52.666;5.202;2022-11-06T00:42:00;17.80;80.90
66057;DHT22;52842;52.666;5.202;2022-11-06T00:44:26;17.80;81.00
66057;DHT22;52842;52.666;5.202;2022-11-06T00:46:53;17.80;80.90
66057;DHT22;52842;52.666;5.202;2022-11-06T00:49:21;17.80;80.90
66057;DHT22;52842;52.666;5.202;2022-11-06T00:51:47;17.80;80.90
66057;DHT22;52842;52.666;5.202;2022-11-06T00:54:14;17.80;80.90
66057;DHT22;52842;52.666;5.202;2022-11-06T00:56:41;17.80;80.90
66057;DHT22;52842;52.666;5.202;2022-11-06T00:59:09;17.80;80.90
66057;DHT22;52842;52.666;5.202;2022-11-06T01:01:37;17.80;80.90
66057;DHT22;52842;52.666;5.202;2022-11-06T01:04:06;17.80;80.90
66057;DHT22;52842;52.666;5.202;2022-11-06T01:06:35;17.80;81.00
66057;DHT22;52842;52.666;5.202;2022-11-06T01:09:02;17.80;80.90
66057;DHT22;52842;52.666;5.202;2022-11-06T01:11:30;17.80;80.90
66057;DHT22;52842;52.666;5.202;2022-11-06T01:13:58;17.80;80.90
66057;DHT22;52842;52.666;5.202;2022-11-06T01:16:25;17.80;80.90
66057;DHT22;52842;52.666;5.202;2022-11-06T01:18:52;17.80;80.90
66057;DHT22;52842;52.666;5.202;2022-11-06T01:21:20;17.80;80.90
66057;DHT22;52842;52.666;5.202;2022-11-06T01:23:50;17.80;80.90
66057;DHT22;52842;52.666;5.202;2022-11-06T01:26:17;17.80;80.90
66057;DHT22;52842;52.666;5.202;2022-11-06T01:28:44;17.80;80.90
66057;DHT22;52842;52.666;5.202;2022-11-06T01:31:12;17.80;80.90
66057;DHT22;52842;52.666;5.202;2022-11-06T01:33:39;17.80;80.80
66057;DHT22;52842;52.666;5.202;2022-11-06T01:36:07;17.80;80.80
66057;DHT22;52842;52.666;5.202;2022-11-06T01:38:33;17.70;80.80
66057;DHT22;52842;52.666;5.202;2022-11-06T01:41:01;17.70;80.80
66057;DHT22;52842;52.666;5.202;2022-11-06T01:43:42;17.70;80.80
66057;DHT22;52842;52.666;5.202;2022-11-06T01:46:09;17.70;80.80
66057;DHT22;52842;52.666;5.202;2022-11-06T01:48:36;17.70;80.80
66057;DHT22;52842;52.666;5.202;2022-11-06T01:51:03;17.70;80.80
66057;DHT22;52842;52.666;5.202;2022-11-06T01:53:30;17.70;80.80
66057;DHT22;52842;52.666;5.202;2022-11-06T01:55:58;17.70;80.80
66057;DHT22;52842;52.666;5.202;2022-11-06T01:58:27;17.70;80.80
66057;DHT22;52842;52.666;5.202;2022-11-06T02:00:55;17.70;80.80
66057;DHT22;52842;52.666;5.202;2022-11-06T02:03:22;17.70;80.80
66057;DHT22;52842;52.666;5.202;2022-11-06T02:05:49;17.70;80.80
66057;DHT22;52842;52.666;5.202;2022-11-06T02:08:16;17.70;80.80
66057;DHT22;52842;52.666;5.202;2022-11-06T02:10:43;17.70;80.80
66057;DHT22;52842;52.666;5.202;2022-11-06T02:13:15;17.70;80.80
66057;DHT22;52842;52.666;5.202;2022-11-06T02:15:45;17.70;80.80
66057;DHT22;52842;52.666;5.202;2022-11-06T02:18:16;17.70;80.80
66057;DHT22;52842;52.666;5.202;2022-11-06T02:20:45;17.70;80.80
66057;DHT22;52842;52.666;5.202;2022-11-06T02:23:24;17.70;80.70
66057;DHT22;52842;52.666;5.202;2022-11-06T02:25:58;17.70;80.80
66057;DHT22;52842;52.666;5.202;2022-11-06T02:28:30;17.70;80.80
66057;DHT22;52842;52.666;5.202;2022-11-06T02:31:00;17.70;80.70
66057;DHT22;52842;52.666;5.202;2022-11-06T02:33:29;17.70;80.70
66057;DHT22;52842;52.666;5.202;2022-11-06T02:35:59;17.70;80.80
66057;DHT22;52842;52.666;5.202;2022-11-06T02:38:29;17.60;80.70
66057;DHT22;52842;52.666;5.202;2022-11-06T02:40:57;17.70;80.70
66057;DHT22;52842;52.666;5.202;2022-11-06T02:43:27;17.70;80.80
66057;DHT22;52842;52.666;5.202;2022-11-06T02:45:56;17.60;80.70
66057;DHT22;52842;52.666;5.202;2022-11-06T02:48:24;17.70;80.70
66057;DHT22;52842;52.666;5.202;2022-11-06T02:50:53;17.70;80.70
66057;DHT22;52842;52.666;5.202;2022-11-06T02:53:21;17.70;80.70
66057;DHT22;52842;52.666;5.202;2022-11-06T02:55:49;17.70;80.70
66057;DHT22;52842;52.666;5.202;2022-11-06T02:58:18;17.70;80.70
66057;DHT22;52842;52.666;5.202;2022-11-06T03:00:47;17.70;80.80
66057;DHT22;52842;52.666;5.202;2022-11-06T03:03:18;17.70;80.70
66057;DHT22;52842;52.666;5.202;2022-11-06T03:05:47;17.60;80.70
66057;DHT22;52842;52.666;5.202;2022-11-06T03:08:20;17.60;80.60
66057;DHT22;52842;52.666;5.202;2022-11-06T03:10:49;17.60;80.60
66057;DHT22;52842;52.666;5.202;2022-11-06T03:13:19;17.60;80.60
66057;DHT22;52842;52.666;5.202;2022-11-06T03:15:48;17.60;80.60
66057;DHT22;52842;52.666;5.202;2022-11-06T03:18:18;17.60;80.60
66057;DHT22;52842;52.666;5.202;2022-11-06T03:20:50;17.60;80.60
66057;DHT22;52842;52.666;5.202;2022-11-06T03:23:19;17.60;80.60
66057;DHT22;52842;52.666;5.202;2022-11-06T03:25:49;17.60;80.60
66057;DHT22;52842;52.666;5.202;2022-11-06T03:28:18;17.60;80.70
66057;DHT22;52842;52.666;5.202;2022-11-06T03:30:51;17.60;80.70
66057;DHT22;52842;52.666;5.202;2022-11-06T03:33:21;17.60;80.70
66057;DHT22;52842;52.666;5.202;2022-11-06T03:35:50;17.60;80.70
66057;DHT22;52842;52.666;5.202;2022-11-06T03:38:19;17.60;80.70
66057;DHT22;52842;52.666;5.202;2022-11-06T03:40:48;17.60;80.70
66057;DHT22;52842;52.666;5.202;2022-11-06T03:43:17;17.60;80.70
66057;DHT22;52842;52.666;5.202;2022-11-06T03:45:49;17.60;80.60
66057;DHT22;52842;52.666;5.202;2022-11-06T03:48:18;17.60;80.60
66057;DHT22;52842;52.666;5.202;2022-11-06T03:50:49;17.60;80.60
66057;DHT22;52842;52.666;5.202;2022-11-06T03:53:19;17.60;80.60
66057;DHT22;52842;52.666;5.202;2022-11-06T03:55:48;17.60;80.60
66057;DHT22;52842;52.666;5.202;2022-11-06T03:58:17;17.60;80.60
66057;DHT22;52842;52.666;5.202;2022-11-06T04:00:45;17.60;80.60
66057;DHT22;52842;52.666;5.202;2022-11-06T04:03:14;17.60;80.60
66057;DHT22;52842;52.666;5.202;2022-11-06T04:05:43;17.60;80.60
66057;DHT22;52842;52.666;5.202;2022-11-06T04:08:12;17.60;80.70
66057;DHT22;52842;52.666;5.202;2022-11-06T04:10:58;17.60;80.60
66057;DHT22;52842;52.666;5.202;2022-11-06T04:13:43;17.60;80.70
66057;DHT22;52842;52.666;5.202;2022-11-06T04:16:23;17.60;80.70
66057;DHT22;52842;52.666;5.202;2022-11-06T04:18:50;17.60;80.70
66057;DHT22;52842;52.666;5.202;2022-11-06T04:21:20;17.60;80.70
66057;DHT22;52842;52.666;5.202;2022-11-06T04:23:59;17.60;80.70
66057;DHT22;52842;52.666;5.202;2022-11-06T04:26:46;17.60;80.60
66057;DHT22;52842;52.666;5.202;2022-11-06T04:29:18;17.60;80.70
66057;DHT22;52842;52.666;5.202;2022-11-06T04:31:47;17.60;80.70
66057;DHT22;52842;52.666;5.202;2022-11-06T04:34:18;17.50;80.60
66057;DHT22;52842;52.666;5.202;2022-11-06T04:36:46;17.50;80.60
66057;DHT22;52842;52.666;5.202;2022-11-06T04:39:17;17.60;80.60
66057;DHT22;52842;52.666;5.202;2022-11-06T04:41:49;17.50;80.60
66057;DHT22;52842;52.666;5.202;2022-11-06T04:44:18;17.50;80.60
66057;DHT22;52842;52.666;5.202;2022-11-06T04:46:47;17.50;80.60
66057;DHT22;52842;52.666;5.202;2022-11-06T04:49:15;17.50;80.60
66057;DHT22;52842;52.666;5.202;2022-11-06T04:51:42;17.50;80.60
66057;DHT22;52842;52.666;5.202;2022-11-06T04:54:10;17.50;80.60
66057;DHT22;52842;52.666;5.202;2022-11-06T04:56:39;17.50;80.60
66057;DHT22;52842;52.666;5.202;2022-11-06T04:59:06;17.50;80.60
66057;DHT22;52842;52.666;5.202;2022-11-06T05:01:32;17.50;80.60
66057;DHT22;52842;52.666;5.202;2022-11-06T05:03:59;17.50;80.60
66057;DHT22;52842;52.666;5.202;2022-11-06T05:06:26;17.50;80.60
66057;DHT22;52842;52.666;5.202;2022-11-06T05:08:52;17.50;80.60
66057;DHT22;52842;52.666;5.202;2022-11-06T05:11:19;17.50;80.60
66057;DHT22;52842;52.666;5.202;2022-11-06T05:13:47;17.50;80.60
66057;DHT22;52842;52.666;5.202;2022-11-06T05:16:14;17.50;80.60
66057;DHT22;52842;52.666;5.202;2022-11-06T05:18:41;17.50;80.60
66057;DHT22;52842;52.666;5.202;2022-11-06T05:21:08;17.50;80.60
66057;DHT22;52842;52.666;5.202;2022-11-06T05:23:52;17.50;80.60
66057;DHT22;52842;52.666;5.202;2022-11-06T05:26:19;17.50;80.60
66057;DHT22;52842;52.666;5.202;2022-11-06T05:28:47;17.50;80.50
66057;DHT22;52842;52.666;5.202;2022-11-06T05:31:14;17.50;80.50
66057;DHT22;52842;52.666;5.202;2022-11-06T05:33:40;17.50;80.50
66057;DHT22;52842;52.666;5.202;2022-11-06T05:36:07;17.50;80.60
66057;DHT22;52842;52.666;5.202;2022-11-06T05:38:37;17.50;80.60
66057;DHT22;52842;52.666;5.202;2022-11-06T05:41:03;17.60;80.50
66057;DHT22;52842;52.666;5.202;2022-11-06T05:43:30;17.70;81.20
66057;DHT22;52842;52.666;5.202;2022-11-06T05:45:58;17.70;80.20
66057;DHT22;52842;52.666;5.202;2022-11-06T05:48:25;17.80;80.20
66057;DHT22;52842;52.666;5.202;2022-11-06T05:50:52;17.90;79.90
66057;DHT22;52842;52.666;5.202;2022-11-06T05:53:19;18.10;79.60
66057;DHT22;52842;52.666;5.202;2022-11-06T05:55:46;18.30;79.20
66057;DHT22;52842;52.666;5.202;2022-11-06T05:58:12;18.60;79.30
66057;DHT22;52842;52.666;5.202;2022-11-06T06:00:39;18.90;77.60
66057;DHT22;52842;52.666;5.202;2022-11-06T06:03:07;19.10;76.80
66057;DHT22;52842;52.666;5.202;2022-11-06T06:05:34;19.30;75.90
66057;DHT22;52842;52.666;5.202;2022-11-06T06:08:01;19.30;75.20
66057;DHT22;52842;52.666;5.202;2022-11-06T06:10:27;19.40;74.70
66057;DHT22;52842;52.666;5.202;2022-11-06T06:12:54;19.40;74.40
66057;DHT22;52842;52.666;5.202;2022-11-06T06:15:20;19.40;74.30
66057;DHT22;52842;52.666;5.202;2022-11-06T06:17:47;19.40;74.30
66057;DHT22;52842;52.666;5.202;2022-11-06T06:20:15;19.30;74.40
66057;DHT22;52842;52.666;5.202;2022-11-06T06:22:42;19.30;74.30
66057;DHT22;52842;52.666;5.202;2022-11-06T06:25:08;19.30;74.40
66057;DHT22;52842;52.666;5.202;2022-11-06T06:27:36;19.20;74.30
66057;DHT22;52842;52.666;5.202;2022-11-06T06:30:03;19.20;74.50
66057;DHT22;52842;52.666;5.202;2022-11-06T06:32:30;19.10;74.60
66057;DHT22;52842;52.666;5.202;2022-11-06T06:34:56;19.00;74.70
66057;DHT22;52842;52.666;5.202;2022-11-06T06:37:24;19.00;74.90
66057;DHT22;52842;52.666;5.202;2022-11-06T06:39:51;18.90;75.10
66057;DHT22;52842;52.666;5.202;2022-11-06T06:42:17;18.90;75.30
66057;DHT22;52842;52.666;5.202;2022-11-06T06:44:44;18.90;75.30
66057;DHT22;52842;52.666;5.202;2022-11-06T06:47:11;19.00;75.40
66057;DHT22;52842;52.666;5.202;2022-11-06T06:49:41;19.00;75.30
66057;DHT22;52842;52.666;5.202;2022-11-06T06:52:08;19.00;74.90
66057;DHT22;52842;52.666;5.202;2022-11-06T06:54:36;18.90;74.90
66057;DHT22;52842;52.666;5.202;2022-11-06T06:57:02;18.80;75.00
66057;DHT22;52842;52.666;5.202;2022-11-06T06:59:29;18.80;75.30
66057;DHT22;52842;52.666;5.202;2022-11-06T07:01:56;18.70;75.60
66057;DHT22;52842;52.666;5.202;2022-11-06T07:04:23;18.70;75.90
66057;DHT22;52842;52.666;5.202;2022-11-06T07:06:51;18.60;76.00
66057;DHT22;52842;52.666;5.202;2022-11-06T07:09:18;18.60;76.10
66057;DHT22;52842;52.666;5.202;2022-11-06T07:11:46;18.60;76.20
66057;DHT22;52842;52.666;5.202;2022-11-06T07:14:13;18.60;76.40
66057;DHT22;52842;52.666;5.202;2022-11-06T07:16:39;18.60;77.30
66057;DHT22;52842;52.666;5.202;2022-11-06T07:19:06;18.60;76.70
66057;DHT22;52842;52.666;5.202;2022-11-06T07:21:33;18.60;76.90
66057;DHT22;52842;52.666;5.202;2022-11-06T07:23:59;18.60;76.90
66057;DHT22;52842;52.666;5.202;2022-11-06T07:26:26;18.60;76.90
66057;DHT22;52842;52.666;5.202;2022-11-06T07:28:54;18.60;77.00
66057;DHT22;52842;52.666;5.202;2022-11-06T07:31:21;18.60;77.10
66057;DHT22;52842;52.666;5.202;2022-11-06T07:33:47;18.60;77.20
66057;DHT22;52842;52.666;5.202;2022-11-06T07:36:14;18.60;77.30
66057;DHT22;52842;52.666;5.202;2022-11-06T07:38:41;18.60;77.20
66057;DHT22;52842;52.666;5.202;2022-11-06T07:41:08;18.60;77.30
66057;DHT22;52842;52.666;5.202;2022-11-06T07:43:35;18.60;77.40
66057;DHT22;52842;52.666;5.202;2022-11-06T07:46:04;18.60;77.40
66057;DHT22;52842;52.666;5.202;2022-11-06T07:48:31;18.50;77.60
66057;DHT22;52842;52.666;5.202;2022-11-06T07:51:00;18.50;77.70
66057;DHT22;52842;52.666;5.202;2022-11-06T07:53:27;18.50;77.80
66057;DHT22;52842;52.666;5.202;2022-11-06T07:55:54;18.50;77.90
66057;DHT22;52842;52.666;5.202;2022-11-06T07:58:21;18.60;77.90
66057;DHT22;52842;52.666;5.202;2022-11-06T08:00:48;18.60;77.90
66057;DHT22;52842;52.666;5.202;2022-11-06T08:03:17;18.60;77.90
66057;DHT22;52842;52.666;5.202;2022-11-06T08:05:44;18.70;77.90
66057;DHT22;52842;52.666;5.202;2022-11-06T08:08:11;18.70;77.80
66057;DHT22;52842;52.666;5.202;2022-11-06T08:10:38;18.80;77.80
66057;DHT22;52842;52.666;5.202;2022-11-06T08:13:08;18.80;77.50
66057;DHT22;52842;52.666;5.202;2022-11-06T08:15:35;18.80;77.50
66057;DHT22;52842;52.666;5.202;2022-11-06T08:18:02;18.90;77.50
66057;DHT22;52842;52.666;5.202;2022-11-06T08:20:30;18.90;77.40
66057;DHT22;52842;52.666;5.202;2022-11-06T08:22:57;18.90;77.30
66057;DHT22;52842;52.666;5.202;2022-11-06T08:25:24;18.90;77.50
66057;DHT22;52842;52.666;5.202;2022-11-06T08:27:52;18.90;77.50
66057;DHT22;52842;52.666;5.202;2022-11-06T08:30:19;18.90;77.50
66057;DHT22;52842;52.666;5.202;2022-11-06T08:32:46;18.90;77.60
66057;DHT22;52842;52.666;5.202;2022-11-06T08:35:12;18.90;77.60
66057;DHT22;52842;52.666;5.202;2022-11-06T08:37:40;18.90;77.60
66057;DHT22;52842;52.666;5.202;2022-11-06T08:40:08;18.90;77.60
66057;DHT22;52842;52.666;5.202;2022-11-06T08:42:35;18.90;77.70
66057;DHT22;52842;52.666;5.202;2022-11-06T08:45:02;18.90;77.80
66057;DHT22;52842;52.666;5.202;2022-11-06T08:47:29;18.90;77.80
66057;DHT22;52842;52.666;5.202;2022-11-06T08:49:55;18.80;77.80
66057;DHT22;52842;52.666;5.202;2022-11-06T08:52:22;18.80;77.80
66057;DHT22;52842;52.666;5.202;2022-11-06T08:54:50;18.80;77.80
66057;DHT22;52842;52.666;5.202;2022-11-06T08:57:17;18.80;77.90
66057;DHT22;52842;52.666;5.202;2022-11-06T08:59:44;18.80;78.00
66057;DHT22;52842;52.666;5.202;2022-11-06T09:02:10;18.80;78.00
66057;DHT22;52842;52.666;5.202;2022-11-06T09:04:37;18.80;78.00
66057;DHT22;52842;52.666;5.202;2022-11-06T09:07:04;18.90;78.10
66057;DHT22;52842;52.666;5.202;2022-11-06T09:09:30;18.90;78.10
66057;DHT22;52842;52.666;5.202;2022-11-06T09:11:59;18.90;78.00
66057;DHT22;52842;52.666;5.202;2022-11-06T09:14:26;18.90;78.00
66057;DHT22;52842;52.666;5.202;2022-11-06T09:16:53;18.90;78.00
66057;DHT22;52842;52.666;5.202;2022-11-06T09:19:19;18.90;78.00
66057;DHT22;52842;52.666;5.202;2022-11-06T09:21:46;18.90;77.90
66057;DHT22;52842;52.666;5.202;2022-11-06T09:24:13;18.90;77.90
66057;DHT22;52842;52.666;5.202;2022-11-06T09:26:39;18.90;77.90
66057;DHT22;52842;52.666;5.202;2022-11-06T09:29:07;19.00;77.90
66057;DHT22;52842;52.666;5.202;2022-11-06T09:31:34;18.90;77.80
66057;DHT22;52842;52.666;5.202;2022-11-06T09:34:01;19.00;77.90
66057;DHT22;52842;52.666;5.202;2022-11-06T09:36:27;18.90;77.80
66057;DHT22;52842;52.666;5.202;2022-11-06T09:38:54;18.90;77.80
66057;DHT22;52842;52.666;5.202;2022-11-06T09:41:21;18.90;77.80
66057;DHT22;52842;52.666;5.202;2022-11-06T09:43:54;18.90;77.90
66057;DHT22;52842;52.666;5.202;2022-11-06T09:46:27;18.90;77.90
66057;DHT22;52842;52.666;5.202;2022-11-06T09:48:56;18.90;78.00
66057;DHT22;52842;52.666;5.202;2022-11-06T09:51:31;18.90;78.10
66057;DHT22;52842;52.666;5.202;2022-11-06T09:54:00;18.90;78.10
66057;DHT22;52842;52.666;5.202;2022-11-06T09:56:28;18.90;78.10
66057;DHT22;52842;52.666;5.202;2022-11-06T09:58:55;19.00;78.10
66057;DHT22;52842;52.666;5.202;2022-11-06T10:01:33;19.00;78.10
66057;DHT22;52842;52.666;5.202;2022-11-06T10:04:02;19.00;78.00
66057;DHT22;52842;52.666;5.202;2022-11-06T10:06:30;19.10;78.00
66057;DHT22;52842;52.666;5.202;2022-11-06T10:08:59;19.10;78.00
66057;DHT22;52842;52.666;5.202;2022-11-06T10:11:29;19.10;77.90
66057;DHT22;52842;52.666;5.202;2022-11-06T10:14:03;19.10;77.90
66057;DHT22;52842;52.666;5.202;2022-11-06T10:16:33;19.10;77.80
66057;DHT22;52842;52.666;5.202;2022-11-06T10:19:06;19.10;77.80
66057;DHT22;52842;52.666;5.202;2022-11-06T10:21:37;19.10;77.80
66057;DHT22;52842;52.666;5.202;2022-11-06T10:24:10;19.10;77.90
66057;DHT22;52842;52.666;5.202;2022-11-06T10:26:40;19.10;77.90
66057;DHT22;52842;52.666;5.202;2022-11-06T10:29:14;19.10;78.00
66057;DHT22;52842;52.666;5.202;2022-11-06T10:31:52;19.10;77.90
66057;DHT22;52842;52.666;5.202;2022-11-06T10:34:23;19.10;78.00
66057;DHT22;52842;52.666;5.202;2022-11-06T10:36:53;19.10;78.00
66057;DHT22;52842;52.666;5.202;2022-11-06T10:39:24;19.10;78.00
66057;DHT22;52842;52.666;5.202;2022-11-06T10:41:54;19.10;78.00
66057;DHT22;52842;52.666;5.202;2022-11-06T10:44:23;19.10;78.10
66057;DHT22;52842;52.666;5.202;2022-11-06T10:46:51;19.10;78.10
66057;DHT22;52842;52.666;5.202;2022-11-06T10:49:20;19.10;78.10
66057;DHT22;52842;52.666;5.202;2022-11-06T10:52:03;19.10;78.10
66057;DHT22;52842;52.666;5.202;2022-11-06T10:54:39;19.10;78.10
66057;DHT22;52842;52.666;5.202;2022-11-06T10:57:14;19.10;78.10
66057;DHT22;52842;52.666;5.202;2022-11-06T10:59:44;19.20;78.20
66057;DHT22;52842;52.666;5.202;2022-11-06T11:02:16;19.20;78.20
66057;DHT22;52842;52.666;5.202;2022-11-06T11:04:46;19.20;78.10
66057;DHT22;52842;52.666;5.202;2022-11-06T11:07:14;19.30;78.20
66057;DHT22;52842;52.666;5.202;2022-11-06T11:09:41;19.30;78.00
66057;DHT22;52842;52.666;5.202;2022-11-06T11:12:17;19.30;77.90
66057;DHT22;52842;52.666;5.202;2022-11-06T11:14:44;19.30;77.90
66057;DHT22;52842;52.666;5.202;2022-11-06T11:17:29;19.30;77.90
66057;DHT22;52842;52.666;5.202;2022-11-06T11:19:56;19.30;77.80
66057;DHT22;52842;52.666;5.202;2022-11-06T11:22:24;19.30;77.80
66057;DHT22;52842;52.666;5.202;2022-11-06T11:25:00;19.30;77.80
66057;DHT22;52842;52.666;5.202;2022-11-06T11:27:28;19.30;77.80
66057;DHT22;52842;52.666;5.202;2022-11-06T11:29:55;19.20;77.80
66057;DHT22;52842;52.666;5.202;2022-11-06T11:32:22;19.30;77.80
66057;DHT22;52842;52.666;5.202;2022-11-06T11:34:49;19.20;77.70
66057;DHT22;52842;52.666;5.202;2022-11-06T11:37:22;19.20;77.70
66057;DHT22;52842;52.666;5.202;2022-11-06T11:39:50;19.20;77.80
66057;DHT22;52842;52.666;5.202;2022-11-06T11:42:24;19.20;77.70
66057;DHT22;52842;52.666;5.202;2022-11-06T11:47:37;19.20;77.80
66057;DHT22;52842;52.666;5.202;2022-11-06T11:50:15;19.10;77.70
66057;DHT22;52842;52.666;5.202;2022-11-06T11:52:42;19.10;77.80
66057;DHT22;52842;52.666;5.202;2022-11-06T11:55:13;19.10;77.80
66057;DHT22;52842;52.666;5.202;2022-11-06T11:57:41;19.10;77.80
66057;DHT22;52842;52.666;5.202;2022-11-06T12:00:12;19.10;77.80
66057;DHT22;52842;52.666;5.202;2022-11-06T12:02:40;19.10;77.70
66057;DHT22;52842;52.666;5.202;2022-11-06T12:05:10;19.10;77.60
66057;DHT22;52842;52.666;5.202;2022-11-06T12:07:40;19.10;77.50
66057;DHT22;52842;52.666;5.202;2022-11-06T12:10:15;19.10;77.40
66057;DHT22;52842;52.666;5.202;2022-11-06T12:12:46;19.10;77.30
66057;DHT22;52842;52.666;5.202;2022-11-06T12:15:17;19.10;77.20
66057;DHT22;52842;52.666;5.202;2022-11-06T12:17:45;19.10;77.20
66057;DHT22;52842;52.666;5.202;2022-11-06T12:20:15;19.10;77.30
66057;DHT22;52842;52.666;5.202;2022-11-06T12:22:45;19.10;77.50
66057;DHT22;52842;52.666;5.202;2022-11-06T12:25:15;19.10;77.60
66057;DHT22;52842;52.666;5.202;2022-11-06T12:27:45;19.10;77.60
66057;DHT22;52842;52.666;5.202;2022-11-06T12:30:13;19.10;77.50
66057;DHT22;52842;52.666;5.202;2022-11-06T12:32:44;19.10;77.40
66057;DHT22;52842;52.666;5.202;2022-11-06T12:35:16;19.10;77.30
66057;DHT22;52842;52.666;5.202;2022-11-06T12:37:46;19.10;77.30
66057;DHT22;52842;52.666;5.202;2022-11-06T12:40:17;19.10;77.40
66057;DHT22;52842;52.666;5.202;2022-11-06T12:42:50;19.00;77.30
66057;DHT22;52842;52.666;5.202;2022-11-06T12:45:17;19.00;77.40
66057;DHT22;52842;52.666;5.202;2022-11-06T12:47:49;18.90;77.50
66057;DHT22;52842;52.666;5.202;2022-11-06T12:50:24;18.90;77.60
66057;DHT22;52842;52.666;5.202;2022-11-06T12:52:58;18.90;77.70
66057;DHT22;52842;52.666;5.202;2022-11-06T12:55:28;18.90;77.90
66057;DHT22;52842;52.666;5.202;2022-11-06T12:58:09;18.90;78.00
66057;DHT22;52842;52.666;5.202;2022-11-06T13:00:44;18.90;78.00
66057;DHT22;52842;52.666;5.202;2022-11-06T13:06:02;19.10;77.80
66057;DHT22;52842;52.666;5.202;2022-11-06T13:08:33;19.10;77.50
66057;DHT22;52842;52.666;5.202;2022-11-06T13:11:06;19.10;77.60
66057;DHT22;52842;52.666;5.202;2022-11-06T13:13:39;19.10;77.80
66057;DHT22;52842;52.666;5.202;2022-11-06T13:16:11;19.00;77.90
66057;DHT22;52842;52.666;5.202;2022-11-06T13:18:43;19.00;78.00
66057;DHT22;52842;52.666;5.202;2022-11-06T13:21:12;19.10;78.20
66057;DHT22;52842;52.666;5.202;2022-11-06T13:23:41;19.10;78.20
66057;DHT22;52842;52.666;5.202;2022-11-06T13:26:12;19.10;78.20
66057;DHT22;52842;52.666;5.202;2022-11-06T13:28:42;19.10;78.10
66057;DHT22;52842;52.666;5.202;2022-11-06T13:31:10;19.10;78.10
66057;DHT22;52842;52.666;5.202;2022-11-06T13:33:38;19.10;78.10
66057;DHT22;52842;52.666;5.202;2022-11-06T13:36:07;19.10;78.10
66057;DHT22;52842;52.666;5.202;2022-11-06T13:38:34;19.10;78.10
66057;DHT22;52842;52.666;5.202;2022-11-06T13:41:02;19.10;78.10
66057;DHT22;52842;52.666;5.202;2022-11-06T13:43:34;19.10;78.10
66057;DHT22;52842;52.666;5.202;2022-11-06T13:46:04;19.20;78.20
66057;DHT22;52842;52.666;5.202;2022-11-06T13:48:34;19.20;78.10
66057;DHT22;52842;52.666;5.202;2022-11-06T13:51:06;19.20;78.10
66057;DHT22;52842;52.666;5.202;2022-11-06T13:53:37;19.10;78.10
66057;DHT22;52842;52.666;5.202;2022-11-06T13:56:09;19.20;78.10
66057;DHT22;52842;52.666;5.202;2022-11-06T13:58:50;19.20;78.20
66057;DHT22;52842;52.666;5.202;2022-11-06T14:01:23;19.20;78.90
66057;DHT22;52842;52.666;5.202;2022-11-06T14:04:09;19.20;78.10
66057;DHT22;52842;52.666;5.202;2022-11-06T14:06:38;19.20;78.20
66057;DHT22;52842;52.666;5.202;2022-11-06T14:09:07;19.20;78.20
66057;DHT22;52842;52.666;5.202;2022-11-06T14:11:35;19.20;78.20
66057;DHT22;52842;52.666;5.202;2022-11-06T14:14:04;19.10;78.20
66057;DHT22;52842;52.666;5.202;2022-11-06T14:16:32;19.10;78.20
66057;DHT22;52842;52.666;5.202;2022-11-06T14:19:01;19.10;78.30
66057;DHT22;52842;52.666;5.202;2022-11-06T14:27:01;19.20;78.00
66057;DHT22;52842;52.666;5.202;2022-11-06T14:38:12;19.30;77.90
66057;DHT22;52842;52.666;5.202;2022-11-06T14:40:41;19.40;77.70
66057;DHT22;52842;52.666;5.202;2022-11-06T14:43:10;19.40;77.40
66057;DHT22;52842;52.666;5.202;2022-11-06T14:45:37;19.30;77.30
66057;DHT22;52842;52.666;5.202;2022-11-06T14:48:06;19.40;77.40
66057;DHT22;52842;52.666;5.202;2022-11-06T14:50:34;19.30;77.30
66057;DHT22;52842;52.666;5.202;2022-11-06T14:53:02;19.30;77.30
66057;DHT22;52842;52.666;5.202;2022-11-06T14:55:32;19.30;77.40
66057;DHT22;52842;52.666;5.202;2022-11-06T14:58:10;19.30;77.70
66057;DHT22;52842;52.666;5.202;2022-11-06T15:00:40;19.30;78.10
66057;DHT22;52842;52.666;5.202;2022-11-06T15:03:15;19.20;78.20
66057;DHT22;52842;52.666;5.202;2022-11-06T15:05:42;19.20;78.40
66057;DHT22;52842;52.666;5.202;2022-11-06T15:08:09;19.20;78.60
66057;DHT22;52842;52.666;5.202;2022-11-06T15:10:51;19.20;79.10
66057;DHT22;52842;52.666;5.202;2022-11-06T15:13:22;19.30;79.50
66057;DHT22;52842;52.666;5.202;2022-11-06T15:15:49;19.30;79.80
66057;DHT22;52842;52.666;5.202;2022-11-06T15:18:17;19.30;80.00
66057;DHT22;52842;52.666;5.202;2022-11-06T15:20:47;19.50;79.90
66057;DHT22;52842;52.666;5.202;2022-11-06T15:23:16;19.60;79.60
66057;DHT22;52842;52.666;5.202;2022-11-06T15:25:46;19.70;79.50
66057;DHT22;52842;52.666;5.202;2022-11-06T15:28:16;19.70;79.40
66057;DHT22;52842;52.666;5.202;2022-11-06T15:30:44;19.70;80.30
66057;DHT22;52842;52.666;5.202;2022-11-06T15:33:13;19.80;79.60
66057;DHT22;52842;52.666;5.202;2022-11-06T15:35:42;19.80;79.50
66057;DHT22;52842;52.666;5.202;2022-11-06T15:38:11;19.90;79.40
66057;DHT22;52842;52.666;5.202;2022-11-06T15:40:38;20.00;78.90
66057;DHT22;52842;52.666;5.202;2022-11-06T15:43:06;20.00;78.70
66057;DHT22;52842;52.666;5.202;2022-11-06T15:45:36;20.00;78.80
66057;DHT22;52842;52.666;5.202;2022-11-06T15:48:03;20.10;79.00
66057;DHT22;52842;52.666;5.202;2022-11-06T15:50:30;20.10;79.00
66057;DHT22;52842;52.666;5.202;2022-11-06T15:55:47;20.20;78.10
66057;DHT22;52842;52.666;5.202;2022-11-06T15:58:22;20.40;77.30
66057;DHT22;52842;52.666;5.202;2022-11-06T16:00:51;20.50;76.70
66057;DHT22;52842;52.666;5.202;2022-11-06T16:03:18;20.60;76.20